sensor_id;sensor_type;location;lat;lon;timestamp;pressure;altitude;pressure_sealevel;temperature;humidity
19884;BME280;10104;50.732;10.174;2024-02-16T00:02:32;97806.31;;;10.25;100.00
19884;BME280;10104;50.732;10.174;2024-02-16T00:05:13;97800.66;;;10.28;100.00
19884;BME280;10104;50.732;10.174;2024-02-16T00:07:53;97803.94;;;10.30;100.00
19884;BME280;10104;50.732;10.174;2024-02-16T00:10:33;97800.34;;;10.37;100.00
19884;BME280;10104;50.732;10.174;2024-02-16T00:13:14;97803.38;;;10.34;100.00
19884;BME280;10104;50.732;10.174;2024-02-16T00:15:54;97808.28;;;10.37;100.00
19884;BME280;10104;50.732;10.174;2024-02-16T00:18:34;97807.84;;;10.34;100.00
19884;BME280;10104;50.732;10.174;2024-02-16T00:21:15;97802.13;;;10.30;100.00
19884;BME280;10104;50.732;10.174;2024-02-16T00:23:57;97824.91;;;10.31;100.00
19884;BME280;10104;50.732;10.174;2024-02-16T00:26:37;97817.19;;;10.30;100.00
19884;BME280;10104;50.732;10.174;2024-02-16T00:29:19;97823.22;;;10.24;100.00
19884;BME280;10104;50.732;10.174;2024-02-16T00:31:59;97818.44;;;10.34;100.00
19884;BME280;10104;50.732;10.174;2024-02-16T00:34:40;97808.09;;;10.39;100.00
19884;BME280;10104;50.732;10.174;2024-02-16T00:37:22;97799.91;;;10.34;100.00
19884;BME280;10104;50.732;10.174;2024-02-16T00:40:02;97806.22;;;10.33;100.00
19884;BME280;10104;50.732;10.174;2024-02-16T00:42:42;97802.25;;;10.22;100.00
19884;BME280;10104;50.732;10.174;2024-02-16T00:45:22;97796.69;;;10.17;100.00
19884;BME280;10104;50.732;10.174;2024-02-16T00:48:02;97791.84;;;10.21;100.00
19884;BME280;10104;50.732;10.174;2024-02-16T00:50:44;97792.31;;;10.24;100.00
19884;BME280;10104;50.732;10.174;2024-02-16T00:53:24;97789.25;;;10.27;100.00
19884;BME280;10104;50.732;10.174;2024-02-16T00:56:05;97781.63;;;10.39;100.00
19884;BME280;10104;50.732;10.174;2024-02-16T00:58:46;97785.28;;;10.38;100.00
19884;BME280;10104;50.732;10.174;2024-02-16T01:01:26;97787.56;;;10.41;100.00
19884;BME280;10104;50.732;10.174;2024-02-16T01:04:07;97783.34;;;10.46;100.00
19884;BME280;10104;50.732;10.174;2024-02-16T01:06:48;97776.78;;;10.42;100.00
19884;BME280;10104;50.732;10.174;2024-02-16T01:09:28;97789.81;;;10.44;100.00
19884;BME280;10104;50.732;10.174;2024-02-16T01:12:08;97786.81;;;10.47;100.00
19884;BME280;10104;50.732;10.174;2024-02-16T01:14:49;97779.88;;;10.46;100.00
19884;BME280;10104;50.732;10.174;2024-02-16T01:17:29;97777.34;;;10.59;100.00
19884;BME280;10104;50.732;10.174;2024-02-16T01:20:10;97782.19;;;10.55;100.00
19884;BME280;10104;50.732;10.174;2024-02-16T01:22:51;97770.16;;;10.53;100.00
19884;BME280;10104;50.732;10.174;2024-02-16T01:25:32;97771.16;;;10.52;100.00
19884;BME280;10104;50.732;10.174;2024-02-16T01:28:12;97778.09;;;10.53;100.00
19884;BME280;10104;50.732;10.174;2024-02-16T01:30:53;97771.34;;;10.50;100.00
19884;BME280;10104;50.732;10.174;2024-02-16T01:33:33;97773.56;;;10.47;100.00
19884;BME280;10104;50.732;10.174;2024-02-16T01:36:15;97782.16;;;10.49;100.00
19884;BME280;10104;50.732;10.174;2024-02-16T01:38:55;97770.75;;;10.48;100.00
19884;BME280;10104;50.732;10.174;2024-02-16T01:41:38;97769.47;;;10.44;100.00
19884;BME280;10104;50.732;10.174;2024-02-16T01:44:19;97768.09;;;10.48;100.00
19884;BME280;10104;50.732;10.174;2024-02-16T01:47:00;97764.16;;;10.44;100.00
19884;BME280;10104;50.732;10.174;2024-02-16T01:49:41;97764.09;;;10.38;100.00
19884;BME280;10104;50.732;10.174;2024-02-16T01:52:22;97762.09;;;10.40;100.00
19884;BME280;10104;50.732;10.174;2024-02-16T01:55:05;97759.63;;;10.38;100.00
19884;BME280;10104;50.732;10.174;2024-02-16T01:57:49;97753.97;;;10.41;100.00
19884;BME280;10104;50.732;10.174;2024-02-16T02:00:29;97748.06;;;10.39;100.00
19884;BME280;10104;50.732;10.174;2024-02-16T02:03:09;97746.47;;;10.45;100.00
19884;BME280;10104;50.732;10.174;2024-02-16T02:05:51;97739.34;;;10.45;100.00
19884;BME280;10104;50.732;10.174;2024-02-16T02:08:34;97748.34;;;10.51;100.00
19884;BME280;10104;50.732;10.174;2024-02-16T02:11:14;97740.34;;;10.44;100.00
19884;BME280;10104;50.732;10.174;2024-02-16T02:13:55;97743.75;;;10.38;100.00
19884;BME280;10104;50.732;10.174;2024-02-16T02:16:35;97745.41;;;10.39;100.00
19884;BME280;10104;50.732;10.174;2024-02-16T02:19:30;97756.22;;;10.44;100.00
19884;BME280;10104;50.732;10.174;2024-02-16T02:22:17;97750.38;;;10.49;100.00
19884;BME280;10104;50.732;10.174;2024-02-16T02:24:58;97751.75;;;10.45;100.00
19884;BME280;10104;50.732;10.174;2024-02-16T02:27:38;97731.34;;;10.39;100.00
19884;BME280;10104;50.732;10.174;2024-02-16T02:30:18;97739.28;;;10.39;100.00
19884;BME280;10104;50.732;10.174;2024-02-16T02:33:01;97744.88;;;10.50;100.00
19884;BME280;10104;50.732;10.174;2024-02-16T02:35:41;97748.16;;;10.52;100.00
19884;BME280;10104;50.732;10.174;2024-02-16T02:38:22;97728.81;;;10.52;100.00
19884;BME280;10104;50.732;10.174;2024-02-16T02:41:02;97727.34;;;10.49;100.00
19884;BME280;10104;50.732;10.174;2024-02-16T02:43:47;97718.16;;;10.45;100.00
19884;BME280;10104;50.732;10.174;2024-02-16T02:46:27;97711.88;;;10.46;100.00
19884;BME280;10104;50.732;10.174;2024-02-16T02:49:07;97712.56;;;10.55;100.00
19884;BME280;10104;50.732;10.174;2024-02-16T02:51:48;97711.47;;;10.49;100.00
19884;BME280;10104;50.732;10.174;2024-02-16T02:54:29;97717.03;;;10.54;100.00
19884;BME280;10104;50.732;10.174;2024-02-16T02:57:09;97699.09;;;10.57;100.00
19884;BME280;10104;50.732;10.174;2024-02-16T02:59:49;97710.56;;;10.64;100.00
19884;BME280;10104;50.732;10.174;2024-02-16T03:02:30;97705.28;;;10.64;100.00
19884;BME280;10104;50.732;10.174;2024-02-16T03:05:11;97691.44;;;10.68;100.00
19884;BME280;10104;50.732;10.174;2024-02-16T03:07:51;97701.63;;;10.65;100.00
19884;BME280;10104;50.732;10.174;2024-02-16T03:10:31;97704.84;;;10.60;100.00
19884;BME280;10104;50.732;10.174;2024-02-16T03:13:15;97708.94;;;10.63;100.00
19884;BME280;10104;50.732;10.174;2024-02-16T03:15:58;97701.56;;;10.58;100.00
19884;BME280;10104;50.732;10.174;2024-02-16T03:18:38;97713.41;;;10.62;100.00
19884;BME280;10104;50.732;10.174;2024-02-16T03:21:19;97704.22;;;10.58;100.00
19884;BME280;10104;50.732;10.174;2024-02-16T03:24:02;97714.44;;;10.61;100.00
19884;BME280;10104;50.732;10.174;2024-02-16T03:26:44;97716.25;;;10.61;100.00
19884;BME280;10104;50.732;10.174;2024-02-16T03:29:24;97710.53;;;10.57;100.00
19884;BME280;10104;50.732;10.174;2024-02-16T03:32:04;97720.50;;;10.55;100.00
19884;BME280;10104;50.732;10.174;2024-02-16T03:34:44;97719.88;;;10.53;100.00
19884;BME280;10104;50.732;10.174;2024-02-16T03:37:25;97717.63;;;10.57;100.00
19884;BME280;10104;50.732;10.174;2024-02-16T03:40:06;97713.81;;;10.59;100.00
19884;BME280;10104;50.732;10.174;2024-02-16T03:42:47;97712.78;;;10.60;100.00
19884;BME280;10104;50.732;10.174;2024-02-16T03:45:28;97710.69;;;10.55;100.00
19884;BME280;10104;50.732;10.174;2024-02-16T03:48:09;97703.53;;;10.49;100.00
19884;BME280;10104;50.732;10.174;2024-02-16T03:50:50;97702.53;;;10.50;100.00
19884;BME280;10104;50.732;10.174;2024-02-16T03:53:30;97704.16;;;10.51;100.00
19884;BME280;10104;50.732;10.174;2024-02-16T03:56:11;97704.03;;;10.60;100.00
19884;BME280;10104;50.732;10.174;2024-02-16T03:58:52;97707.97;;;10.42;100.00
19884;BME280;10104;50.732;10.174;2024-02-16T04:01:32;97710.63;;;10.42;100.00
19884;BME280;10104;50.732;10.174;2024-02-16T04:04:12;97718.88;;;10.33;100.00
19884;BME280;10104;50.732;10.174;2024-02-16T04:06:53;97715.75;;;10.23;100.00
19884;BME280;10104;50.732;10.174;2024-02-16T04:09:34;97724.44;;;10.17;100.00
19884;BME280;10104;50.732;10.174;2024-02-16T04:12:14;97726.50;;;10.21;100.00
19884;BME280;10104;50.732;10.174;2024-02-16T04:14:54;97716.94;;;10.20;100.00
19884;BME280;10104;50.732;10.174;2024-02-16T04:17:34;97720.47;;;10.27;100.00
19884;BME280;10104;50.732;10.174;2024-02-16T04:20:18;97707.03;;;10.29;100.00
19884;BME280;10104;50.732;10.174;2024-02-16T04:23:00;97706.03;;;10.30;100.00
19884;BME280;10104;50.732;10.174;2024-02-16T04:25:40;97705.59;;;10.26;100.00
19884;BME280;10104;50.732;10.174;2024-02-16T04:28:20;97698.47;;;10.27;100.00
19884;BME280;10104;50.732;10.174;2024-02-16T04:31:00;97698.47;;;10.27;100.00
19884;BME280;10104;50.732;10.174;2024-02-16T04:33:40;97699.72;;;10.31;100.00
19884;BME280;10104;50.732;10.174;2024-02-16T04:36:21;97703.19;;;10.31;100.00
19884;BME280;10104;50.732;10.174;2024-02-16T04:39:01;97715.09;;;10.21;100.00
19884;BME280;10104;50.732;10.174;2024-02-16T04:41:41;97716.75;;;10.22;100.00
19884;BME280;10104;50.732;10.174;2024-02-16T04:44:22;97710.13;;;10.11;100.00
19884;BME280;10104;50.732;10.174;2024-02-16T04:47:02;97721.63;;;10.03;100.00
19884;BME280;10104;50.732;10.174;2024-02-16T04:49:43;97719.81;;;10.04;100.00
19884;BME280;10104;50.732;10.174;2024-02-16T04:52:23;97720.16;;;10.01;100.00
19884;BME280;10104;50.732;10.174;2024-02-16T04:55:08;97715.28;;;9.98;100.00
19884;BME280;10104;50.732;10.174;2024-02-16T04:57:48;97723.47;;;10.03;100.00
19884;BME280;10104;50.732;10.174;2024-02-16T05:00:28;97725.69;;;9.99;100.00
19884;BME280;10104;50.732;10.174;2024-02-16T05:03:08;97723.56;;;9.95;100.00
19884;BME280;10104;50.732;10.174;2024-02-16T05:05:49;97722.25;;;9.84;100.00
19884;BME280;10104;50.732;10.174;2024-02-16T05:08:29;97714.25;;;9.78;100.00
19884;BME280;10104;50.732;10.174;2024-02-16T05:11:10;97717.34;;;9.81;100.00
19884;BME280;10104;50.732;10.174;2024-02-16T05:13:50;97726.50;;;9.64;100.00
19884;BME280;10104;50.732;10.174;2024-02-16T05:16:30;97723.16;;;9.55;100.00
19884;BME280;10104;50.732;10.174;2024-02-16T05:19:12;97721.03;;;9.51;100.00
19884;BME280;10104;50.732;10.174;2024-02-16T05:21:52;97715.41;;;9.39;100.00
19884;BME280;10104;50.732;10.174;2024-02-16T05:24:32;97716.88;;;9.42;100.00
19884;BME280;10104;50.732;10.174;2024-02-16T05:27:13;97715.50;;;9.46;100.00
19884;BME280;10104;50.732;10.174;2024-02-16T05:29:54;97720.44;;;9.49;100.00
19884;BME280;10104;50.732;10.174;2024-02-16T05:32:37;97726.81;;;9.54;100.00
19884;BME280;10104;50.732;10.174;2024-02-16T05:35:17;97724.81;;;9.56;100.00
19884;BME280;10104;50.732;10.174;2024-02-16T05:37:58;97720.25;;;9.50;100.00
19884;BME280;10104;50.732;10.174;2024-02-16T05:40:38;97720.44;;;9.49;100.00
19884;BME280;10104;50.732;10.174;2024-02-16T05:43:34;97721.59;;;9.61;100.00
19884;BME280;10104;50.732;10.174;2024-02-16T05:46:15;97717.22;;;9.53;100.00
19884;BME280;10104;50.732;10.174;2024-02-16T05:48:56;97719.44;;;9.50;100.00
19884;BME280;10104;50.732;10.174;2024-02-16T05:51:37;97716.97;;;9.48;100.00
19884;BME280;10104;50.732;10.174;2024-02-16T05:54:19;97722.59;;;9.45;100.00
19884;BME280;10104;50.732;10.174;2024-02-16T05:56:59;97720.19;;;9.44;100.00
19884;BME280;10104;50.732;10.174;2024-02-16T05:59:40;97723.69;;;9.51;100.00
19884;BME280;10104;50.732;10.174;2024-02-16T06:02:21;97724.25;;;9.46;100.00
19884;BME280;10104;50.732;10.174;2024-02-16T06:05:05;97733.16;;;9.60;100.00
19884;BME280;10104;50.732;10.174;2024-02-16T06:07:45;97723.16;;;9.55;100.00
19884;BME280;10104;50.732;10.174;2024-02-16T06:10:25;97722.78;;;9.58;100.00
19884;BME280;10104;50.732;10.174;2024-02-16T06:13:05;97727.06;;;9.59;100.00
19884;BME280;10104;50.732;10.174;2024-02-16T06:15:46;97729.25;;;9.56;100.00
19884;BME280;10104;50.732;10.174;2024-02-16T06:18:27;97728.06;;;9.58;100.00
19884;BME280;10104;50.732;10.174;2024-02-16T06:21:09;97732.78;;;9.63;100.00
19884;BME280;10104;50.732;10.174;2024-02-16T06:23:49;97742.56;;;9.62;100.00
19884;BME280;10104;50.732;10.174;2024-02-16T06:26:30;97736.63;;;9.60;100.00
19884;BME280;10104;50.732;10.174;2024-02-16T06:29:10;97747.47;;;9.65;100.00
19884;BME280;10104;50.732;10.174;2024-02-16T06:31:50;97751.00;;;9.72;100.00
19884;BME280;10104;50.732;10.174;2024-02-16T06:34:31;97748.63;;;9.78;100.00
19884;BME280;10104;50.732;10.174;2024-02-16T06:37:12;97756.53;;;9.78;100.00
19884;BME280;10104;50.732;10.174;2024-02-16T06:39:52;97748.88;;;9.83;100.00
19884;BME280;10104;50.732;10.174;2024-02-16T06:42:32;97752.50;;;9.82;100.00
19884;BME280;10104;50.732;10.174;2024-02-16T06:45:14;97765.72;;;9.96;100.00
19884;BME280;10104;50.732;10.174;2024-02-16T06:47:54;97760.72;;;9.87;100.00
19884;BME280;10104;50.732;10.174;2024-02-16T06:50:36;97758.34;;;9.92;100.00
19884;BME280;10104;50.732;10.174;2024-02-16T06:53:16;97768.34;;;9.96;100.00
19884;BME280;10104;50.732;10.174;2024-02-16T06:55:57;97771.88;;;10.03;100.00
19884;BME280;10104;50.732;10.174;2024-02-16T06:58:37;97766.78;;;10.02;100.00
19884;BME280;10104;50.732;10.174;2024-02-16T07:01:17;97762.13;;;10.04;100.00
19884;BME280;10104;50.732;10.174;2024-02-16T07:04:00;97756.44;;;10.07;100.00
19884;BME280;10104;50.732;10.174;2024-02-16T07:06:42;97778.19;;;10.02;100.00
19884;BME280;10104;50.732;10.174;2024-02-16T07:09:22;97771.97;;;10.10;100.00
19884;BME280;10104;50.732;10.174;2024-02-16T07:12:03;97774.03;;;10.14;100.00
19884;BME280;10104;50.732;10.174;2024-02-16T07:14:43;97765.91;;;10.16;100.00
19884;BME280;10104;50.732;10.174;2024-02-16T07:17:24;97773.56;;;10.26;100.00
19884;BME280;10104;50.732;10.174;2024-02-16T07:20:04;97768.41;;;10.39;100.00
19884;BME280;10104;50.732;10.174;2024-02-16T07:22:45;97778.16;;;10.38;100.00
19884;BME280;10104;50.732;10.174;2024-02-16T07:25:27;97769.94;;;10.48;100.00
19884;BME280;10104;50.732;10.174;2024-02-16T07:28:08;97772.34;;;10.49;100.00
19884;BME280;10104;50.732;10.174;2024-02-16T07:30:48;97761.75;;;10.43;100.00
19884;BME280;10104;50.732;10.174;2024-02-16T07:33:29;97748.63;;;10.35;100.00
19884;BME280;10104;50.732;10.174;2024-02-16T07:36:10;97745.59;;;10.38;100.00
19884;BME280;10104;50.732;10.174;2024-02-16T07:38:50;97745.16;;;10.34;100.00
19884;BME280;10104;50.732;10.174;2024-02-16T07:41:30;97741.25;;;10.30;100.00
19884;BME280;10104;50.732;10.174;2024-02-16T07:44:11;97726.56;;;10.49;100.00
19884;BME280;10104;50.732;10.174;2024-02-16T07:46:51;97732.22;;;10.46;100.00
19884;BME280;10104;50.732;10.174;2024-02-16T07:49:32;97725.41;;;10.58;100.00
19884;BME280;10104;50.732;10.174;2024-02-16T07:52:12;97720.75;;;10.60;100.00
19884;BME280;10104;50.732;10.174;2024-02-16T07:54:52;97738.56;;;10.73;100.00
19884;BME280;10104;50.732;10.174;2024-02-16T07:57:32;97746.63;;;10.65;100.00
19884;BME280;10104;50.732;10.174;2024-02-16T08:00:13;97754.81;;;10.70;100.00
19884;BME280;10104;50.732;10.174;2024-02-16T08:02:55;97762.69;;;10.84;100.00
19884;BME280;10104;50.732;10.174;2024-02-16T08:05:36;97771.91;;;10.95;100.00
19884;BME280;10104;50.732;10.174;2024-02-16T08:08:16;97776.44;;;11.01;100.00
19884;BME280;10104;50.732;10.174;2024-02-16T08:10:56;97784.53;;;10.93;100.00
19884;BME280;10104;50.732;10.174;2024-02-16T08:13:37;97777.44;;;11.00;100.00
19884;BME280;10104;50.732;10.174;2024-02-16T08:16:17;97775.63;;;11.01;100.00
19884;BME280;10104;50.732;10.174;2024-02-16T08:18:57;97781.56;;;11.03;100.00
19884;BME280;10104;50.732;10.174;2024-02-16T08:21:37;97786.41;;;10.99;100.00
19884;BME280;10104;50.732;10.174;2024-02-16T08:24:18;97774.97;;;10.99;100.00
19884;BME280;10104;50.732;10.174;2024-02-16T08:26:58;97782.56;;;11.02;100.00
19884;BME280;10104;50.732;10.174;2024-02-16T08:29:38;97779.72;;;11.03;100.00
19884;BME280;10104;50.732;10.174;2024-02-16T08:32:18;97776.88;;;11.05;100.00
19884;BME280;10104;50.732;10.174;2024-02-16T08:35:00;97778.28;;;11.01;100.00
19884;BME280;10104;50.732;10.174;2024-02-16T08:37:40;97781.75;;;11.01;100.00
19884;BME280;10104;50.732;10.174;2024-02-16T08:40:21;97778.72;;;11.04;100.00
19884;BME280;10104;50.732;10.174;2024-02-16T08:43:01;97775.13;;;11.18;100.00
19884;BME280;10104;50.732;10.174;2024-02-16T08:45:43;97773.91;;;11.21;100.00
19884;BME280;10104;50.732;10.174;2024-02-16T08:48:24;97773.56;;;11.30;100.00
19884;BME280;10104;50.732;10.174;2024-02-16T08:51:05;97766.31;;;11.46;100.00
19884;BME280;10104;50.732;10.174;2024-02-16T08:53:46;97769.97;;;11.45;100.00
19884;BME280;10104;50.732;10.174;2024-02-16T08:56:29;97765.56;;;11.58;100.00
19884;BME280;10104;50.732;10.174;2024-02-16T08:59:09;97778.13;;;11.78;100.00
19884;BME280;10104;50.732;10.174;2024-02-16T09:01:49;97792.66;;;11.95;100.00
19884;BME280;10104;50.732;10.174;2024-02-16T09:04:30;97791.28;;;12.12;100.00
19884;BME280;10104;50.732;10.174;2024-02-16T09:07:11;97779.50;;;12.28;100.00
19884;BME280;10104;50.732;10.174;2024-02-16T09:09:52;97781.97;;;12.55;100.00
19884;BME280;10104;50.732;10.174;2024-02-16T09:12:33;97792.59;;;12.62;100.00
19884;BME280;10104;50.732;10.174;2024-02-16T09:15:13;97794.03;;;12.78;100.00
19884;BME280;10104;50.732;10.174;2024-02-16T09:17:53;97789.13;;;12.81;99.97
19884;BME280;10104;50.732;10.174;2024-02-16T09:20:34;97787.50;;;12.93;100.00
19884;BME280;10104;50.732;10.174;2024-02-16T09:23:14;97786.66;;;13.00;98.75
19884;BME280;10104;50.732;10.174;2024-02-16T09:25:54;97791.59;;;13.16;95.86
19884;BME280;10104;50.732;10.174;2024-02-16T09:28:39;97798.34;;;13.25;96.72
19884;BME280;10104;50.732;10.174;2024-02-16T09:31:20;97804.66;;;13.24;95.57
19884;BME280;10104;50.732;10.174;2024-02-16T09:34:01;97808.94;;;13.38;95.61
19884;BME280;10104;50.732;10.174;2024-02-16T09:36:43;97800.75;;;13.40;93.75
19884;BME280;10104;50.732;10.174;2024-02-16T09:39:23;97808.94;;;13.51;94.75
19884;BME280;10104;50.732;10.174;2024-02-16T09:42:04;97806.63;;;13.61;94.57
19884;BME280;10104;50.732;10.174;2024-02-16T09:44:44;97807.41;;;13.75;93.39
19884;BME280;10104;50.732;10.174;2024-02-16T09:47:25;97810.47;;;13.78;90.35
19884;BME280;10104;50.732;10.174;2024-02-16T09:50:09;97815.75;;;13.85;92.43
19884;BME280;10104;50.732;10.174;2024-02-16T09:52:50;97808.41;;;13.87;91.48
19884;BME280;10104;50.732;10.174;2024-02-16T09:55:32;97818.56;;;13.97;91.48
19884;BME280;10104;50.732;10.174;2024-02-16T09:58:13;97814.72;;;13.93;91.41
19884;BME280;10104;50.732;10.174;2024-02-16T10:00:57;97827.41;;;13.91;89.94
19884;BME280;10104;50.732;10.174;2024-02-16T10:03:43;97826.59;;;13.90;90.12
19884;BME280;10104;50.732;10.174;2024-02-16T10:06:23;97823.09;;;13.96;90.51
19884;BME280;10104;50.732;10.174;2024-02-16T10:09:03;97822.69;;;13.99;91.93
19884;BME280;10104;50.732;10.174;2024-02-16T10:11:46;97816.44;;;14.18;91.15
19884;BME280;10104;50.732;10.174;2024-02-16T10:14:27;97815.59;;;14.25;88.17
19884;BME280;10104;50.732;10.174;2024-02-16T10:17:08;97813.44;;;14.46;87.96
19884;BME280;10104;50.732;10.174;2024-02-16T10:19:57;97822.22;;;14.53;88.20
19884;BME280;10104;50.732;10.174;2024-02-16T10:22:37;97829.25;;;14.73;86.57
19884;BME280;10104;50.732;10.174;2024-02-16T10:25:20;97825.03;;;14.90;85.73
19884;BME280;10104;50.732;10.174;2024-02-16T10:28:07;97847.91;;;15.04;84.42
19884;BME280;10104;50.732;10.174;2024-02-16T10:30:48;97849.59;;;15.23;81.93
19884;BME280;10104;50.732;10.174;2024-02-16T10:33:28;97850.09;;;15.32;81.72
19884;BME280;10104;50.732;10.174;2024-02-16T10:36:10;97846.41;;;15.33;86.50
19884;BME280;10104;50.732;10.174;2024-02-16T10:38:52;97842.44;;;15.42;84.95
19884;BME280;10104;50.732;10.174;2024-02-16T10:41:35;97845.59;;;15.57;82.96
19884;BME280;10104;50.732;10.174;2024-02-16T10:44:16;97833.28;;;15.93;79.61
19884;BME280;10104;50.732;10.174;2024-02-16T10:46:56;97836.59;;;16.25;78.97
19884;BME280;10104;50.732;10.174;2024-02-16T10:49:36;97830.03;;;16.39;73.34
19884;BME280;10104;50.732;10.174;2024-02-16T10:52:17;97827.72;;;16.42;73.42
19884;BME280;10104;50.732;10.174;2024-02-16T10:54:58;97819.09;;;16.29;74.03
19884;BME280;10104;50.732;10.174;2024-02-16T10:57:39;97819.53;;;16.26;71.63
19884;BME280;10104;50.732;10.174;2024-02-16T11:00:20;97812.78;;;16.53;72.39
19884;BME280;10104;50.732;10.174;2024-02-16T11:03:02;97815.31;;;16.78;72.42
19884;BME280;10104;50.732;10.174;2024-02-16T11:05:43;97804.53;;;17.08;72.64
19884;BME280;10104;50.732;10.174;2024-02-16T11:08:26;97798.00;;;17.04;68.91
19884;BME280;10104;50.732;10.174;2024-02-16T11:11:08;97791.28;;;17.01;66.98
19884;BME280;10104;50.732;10.174;2024-02-16T11:13:54;97793.13;;;17.24;66.95
19884;BME280;10104;50.732;10.174;2024-02-16T11:16:43;97797.22;;;17.26;67.11
19884;BME280;10104;50.732;10.174;2024-02-16T11:19:24;97782.09;;;17.09;68.21
19884;BME280;10104;50.732;10.174;2024-02-16T11:22:05;97781.50;;;17.07;67.27
19884;BME280;10104;50.732;10.174;2024-02-16T11:24:49;97770.09;;;17.11;68.79
19884;BME280;10104;50.732;10.174;2024-02-16T11:27:34;97771.97;;;17.11;68.05
19884;BME280;10104;50.732;10.174;2024-02-16T11:30:15;97767.31;;;17.29;67.27
19884;BME280;10104;50.732;10.174;2024-02-16T11:32:55;97765.00;;;17.21;69.37
19884;BME280;10104;50.732;10.174;2024-02-16T11:35:35;97765.94;;;17.27;69.54
19884;BME280;10104;50.732;10.174;2024-02-16T11:38:15;97756.38;;;17.31;70.77
19884;BME280;10104;50.732;10.174;2024-02-16T11:41:07;97764.06;;;17.27;69.99
19884;BME280;10104;50.732;10.174;2024-02-16T11:43:48;97756.84;;;17.28;70.65
19884;BME280;10104;50.732;10.174;2024-02-16T11:46:28;97747.31;;;17.20;70.76
19884;BME280;10104;50.732;10.174;2024-02-16T11:49:08;97752.66;;;17.20;71.80
19884;BME280;10104;50.732;10.174;2024-02-16T11:51:50;97752.53;;;17.27;71.66
19884;BME280;10104;50.732;10.174;2024-02-16T11:54:30;97764.41;;;17.19;72.38
19884;BME280;10104;50.732;10.174;2024-02-16T11:57:11;97764.19;;;17.32;75.37
19884;BME280;10104;50.732;10.174;2024-02-16T11:59:53;97765.09;;;17.26;73.80
19884;BME280;10104;50.732;10.174;2024-02-16T12:02:36;97766.03;;;17.20;71.52
19884;BME280;10104;50.732;10.174;2024-02-16T12:05:17;97769.50;;;16.97;73.27
19884;BME280;10104;50.732;10.174;2024-02-16T12:07:57;97764.16;;;16.97;75.31
19884;BME280;10104;50.732;10.174;2024-02-16T12:10:38;97774.97;;;16.79;80.01
19884;BME280;10104;50.732;10.174;2024-02-16T12:13:19;97775.44;;;16.99;80.78
19884;BME280;10104;50.732;10.174;2024-02-16T12:16:01;97774.13;;;16.79;78.59
19884;BME280;10104;50.732;10.174;2024-02-16T12:18:42;97781.13;;;16.80;80.61
19884;BME280;10104;50.732;10.174;2024-02-16T12:21:22;97783.47;;;16.99;78.83
19884;BME280;10104;50.732;10.174;2024-02-16T12:24:02;97778.94;;;17.00;78.62
19884;BME280;10104;50.732;10.174;2024-02-16T12:26:43;97784.28;;;17.12;77.22
19884;BME280;10104;50.732;10.174;2024-02-16T12:29:23;97780.81;;;17.23;78.11
19884;BME280;10104;50.732;10.174;2024-02-16T12:32:03;97777.91;;;17.24;75.32
19884;BME280;10104;50.732;10.174;2024-02-16T12:34:44;97780.00;;;17.22;76.80
19884;BME280;10104;50.732;10.174;2024-02-16T12:37:24;97796.63;;;17.13;75.49
19884;BME280;10104;50.732;10.174;2024-02-16T12:40:05;97796.28;;;17.32;74.71
19884;BME280;10104;50.732;10.174;2024-02-16T12:42:47;97794.19;;;17.11;74.14
19884;BME280;10104;50.732;10.174;2024-02-16T12:45:28;97798.28;;;17.14;73.52
19884;BME280;10104;50.732;10.174;2024-02-16T12:48:08;97793.25;;;17.06;72.69
19884;BME280;10104;50.732;10.174;2024-02-16T12:50:54;97790.56;;;17.29;71.01
19884;BME280;10104;50.732;10.174;2024-02-16T12:53:34;97781.50;;;17.30;71.44
19884;BME280;10104;50.732;10.174;2024-02-16T12:56:20;97789.06;;;17.45;69.98
19884;BME280;10104;50.732;10.174;2024-02-16T12:59:01;97779.88;;;17.52;69.42
19884;BME280;10104;50.732;10.174;2024-02-16T13:01:42;97780.53;;;17.59;67.66
19884;BME280;10104;50.732;10.174;2024-02-16T13:04:23;97776.25;;;17.58;66.15
19884;BME280;10104;50.732;10.174;2024-02-16T13:07:03;97771.34;;;17.78;65.62
19884;BME280;10104;50.732;10.174;2024-02-16T13:09:44;97767.16;;;17.83;65.00
19884;BME280;10104;50.732;10.174;2024-02-16T13:12:25;97770.84;;;17.93;64.97
19884;BME280;10104;50.732;10.174;2024-02-16T13:15:05;97762.75;;;18.05;66.08
19884;BME280;10104;50.732;10.174;2024-02-16T13:18:05;97778.66;;;17.95;65.88
19884;BME280;10104;50.732;10.174;2024-02-16T13:20:46;97775.91;;;18.06;66.33
19884;BME280;10104;50.732;10.174;2024-02-16T13:23:27;97769.75;;;18.06;65.84
19884;BME280;10104;50.732;10.174;2024-02-16T13:26:09;97761.75;;;17.94;66.20
19884;BME280;10104;50.732;10.174;2024-02-16T13:28:49;97772.56;;;17.99;65.84
19884;BME280;10104;50.732;10.174;2024-02-16T13:31:30;97761.44;;;17.79;66.70
19884;BME280;10104;50.732;10.174;2024-02-16T13:34:12;97753.81;;;17.99;65.88
19884;BME280;10104;50.732;10.174;2024-02-16T13:36:53;97752.53;;;18.02;67.20
19884;BME280;10104;50.732;10.174;2024-02-16T13:39:33;97753.72;;;17.94;67.29
19884;BME280;10104;50.732;10.174;2024-02-16T13:42:14;97762.53;;;18.06;68.15
19884;BME280;10104;50.732;10.174;2024-02-16T13:44:54;97757.44;;;18.22;67.41
19884;BME280;10104;50.732;10.174;2024-02-16T13:47:34;97758.53;;;18.37;68.07
19884;BME280;10104;50.732;10.174;2024-02-16T13:50:15;97763.47;;;18.29;65.42
19884;BME280;10104;50.732;10.174;2024-02-16T13:52:56;97768.00;;;18.28;66.54
19884;BME280;10104;50.732;10.174;2024-02-16T13:55:36;97772.69;;;18.21;66.29
19884;BME280;10104;50.732;10.174;2024-02-16T13:58:16;97764.84;;;17.74;67.86